createdAt,value
2024-01-16T00:13:45.797Z,98169.63
2024-01-16T02:02:12.693Z,98537.91
2024-01-16T02:03:48.548Z,98546.66
2024-01-16T02:05:21.277Z,98547.41
2024-01-16T02:06:53.577Z,98557.66
2024-01-16T02:08:26.050Z,98572.25
2024-01-16T03:35:07.952Z,98847.16
2024-01-16T03:36:40.266Z,98837.78
2024-01-16T03:38:12.486Z,98843.78
2024-01-16T03:39:46.467Z,98845.50
2024-01-16T03:41:18.722Z,98841.22
2024-01-16T03:42:50.862Z,98833.53
2024-01-16T03:44:23.130Z,98833.53
2024-01-16T07:50:07.638Z,99390.66
2024-01-16T07:51:41.122Z,99395.75
2024-01-16T07:53:13.763Z,99394.91
2024-01-16T07:54:46.109Z,99399.19
2024-01-16T13:36:39.824Z,99756.88
2024-01-16T13:38:15.171Z,99760.28
2024-01-16T13:39:47.937Z,99753.47
2024-01-16T13:41:20.217Z,99756.88
2024-01-16T13:42:53.153Z,99755.19
2024-01-16T13:44:25.877Z,99758.56
2024-01-16T18:02:43.552Z,99936.53
2024-01-16T18:04:15.897Z,99946.69
2024-01-16T18:05:50.658Z,99948.28
2024-01-16T18:07:22.842Z,99957.50
2024-01-16T18:08:55.310Z,99943.69
2024-01-16T18:10:28.279Z,99958.13
2024-01-16T18:12:00.851Z,99949.63
2024-01-16T18:13:33.581Z,99942.69
2024-01-16T18:15:13.264Z,99945.28
2024-01-16T18:16:45.618Z,99952.13
2024-01-16T18:18:18.952Z,99953.75
2024-01-16T18:19:53.417Z,99954.53
2024-01-16T18:21:25.788Z,99957.66
2024-01-16T18:22:58.039Z,99959.13
2024-01-16T18:24:30.713Z,99953.00
2024-01-16T18:26:03.021Z,99955.53
2024-01-16T18:27:35.463Z,99959.78
2024-01-16T18:29:08.218Z,99950.38
2024-01-16T18:30:40.808Z,99957.38
2024-01-16T18:32:13.923Z,99951.47
2024-01-16T18:33:46.475Z,99949.78
2024-01-16T18:35:20.215Z,99940.28
2024-01-16T18:36:55.195Z,99953.19
2024-01-16T18:38:29.476Z,99946.28
2024-01-16T18:40:02.048Z,99949.34
2024-01-16T18:41:36.029Z,99951.72
2024-01-16T18:43:09.384Z,99955.84
2024-01-16T18:44:41.677Z,99957.28
2024-01-16T18:46:16.096Z,99959.88
2024-01-16T18:47:49.870Z,99952.22
2024-01-16T18:49:22.557Z,99951.47
2024-01-16T18:50:56.168Z,99940.28
2024-01-16T18:52:28.620Z,99947.91
2024-01-16T18:54:00.850Z,99939.31
2024-01-16T18:55:33.158Z,99937.59
2024-01-16T18:57:05.535Z,99950.44
2024-01-16T18:58:38.267Z,99948.81
2024-01-16T19:00:15.366Z,99937.34
2024-01-16T19:01:47.889Z,99939.53
2024-01-16T19:03:20.648Z,99943.69
2024-01-16T19:04:53.249Z,99945.25
2024-01-16T19:06:25.636Z,99953.00
2024-01-16T19:07:58.108Z,99949.63
2024-01-16T19:09:38.362Z,99952.31
2024-01-16T19:11:10.940Z,99959.00
2024-01-16T19:12:44.342Z,99958.88
2024-01-16T19:14:18.483Z,99964.09
2024-01-16T19:15:52.033Z,99964.03
2024-01-16T19:17:24.355Z,99957.06
2024-01-16T19:18:56.730Z,99962.00
2024-01-16T19:20:29.805Z,99962.63
2024-01-16T19:22:02.227Z,99974.25
2024-01-16T19:23:36.148Z,99976.00
2024-01-16T19:25:12.858Z,99968.22
2024-01-16T19:26:45.563Z,99970.97
2024-01-16T19:28:17.989Z,99971.88
2024-01-16T19:29:50.354Z,99972.81
2024-01-16T19:31:22.813Z,99961.91
2024-01-16T19:32:55.703Z,99960.84
2024-01-16T19:34:28.302Z,99961.53
2024-01-16T19:36:03.007Z,99970.78
2024-01-16T19:37:36.044Z,99982.84
2024-01-16T19:39:16.186Z,99976.91
2024-01-16T19:40:48.572Z,99974.03
2024-01-16T19:42:20.872Z,99977.97
2024-01-16T19:43:53.065Z,99971.78
2024-01-16T19:45:25.749Z,99964.06
2024-01-16T19:46:58.282Z,99972.69
2024-01-16T19:48:30.999Z,99973.69
2024-01-16T19:50:06.935Z,99979.84
2024-01-16T19:51:42.167Z,99973.25
2024-01-16T19:53:15.818Z,99974.75
2024-01-16T19:54:48.100Z,99975.66
2024-01-16T19:56:20.381Z,99973.19
2024-01-16T19:57:54.579Z,99984.38
2024-01-16T19:59:27.020Z,99984.97
2024-01-16T20:00:59.444Z,99978.91
2024-01-16T20:02:31.817Z,99977.00
2024-01-16T20:04:04.324Z,99975.13
2024-01-16T20:05:43.686Z,99984.28
2024-01-16T20:07:16.274Z,99977.25
2024-01-16T20:08:53.160Z,99982.09
2024-01-16T20:10:25.527Z,99973.41
2024-01-16T20:12:01.698Z,99974.19
2024-01-16T20:13:33.982Z,99986.41
2024-01-16T20:15:06.996Z,99987.41
2024-01-16T20:16:40.369Z,99983.16
2024-01-16T20:18:13.539Z,99983.22
2024-01-16T20:19:45.848Z,99976.25
2024-01-16T20:21:18.213Z,99982.22
2024-01-16T20:41:04.974Z,100016.84
2024-01-16T20:42:38.514Z,100012.25
2024-01-16T20:44:11.287Z,100013.09
2024-01-16T20:45:43.488Z,100015.88
2024-01-16T20:47:15.745Z,100023.28
2024-01-16T20:48:48.052Z,100027.25
2024-01-16T20:50:20.430Z,100029.72
2024-01-16T20:51:55.352Z,100028.19
2024-01-16T20:53:28.667Z,100040.13
2024-01-16T20:55:03.476Z,100043.56
2024-01-16T20:56:41.604Z,100047.06
2024-01-16T20:58:13.958Z,100048.34
2024-01-16T20:59:46.881Z,100051.56
2024-01-16T21:01:19.103Z,100058.34
2024-01-16T21:02:51.385Z,100051.66
2024-01-16T21:04:23.654Z,100045.53
2024-01-16T21:05:56.665Z,100047.13
2024-01-16T21:07:29.329Z,100047.13
2024-01-16T21:09:02.015Z,100055.63
2024-01-16T21:10:34.247Z,100045.53
2024-01-16T21:12:07.065Z,100046.63
2024-01-16T21:13:39.434Z,100032.34
2024-01-16T21:15:11.608Z,100040.81
2024-01-16T21:16:43.789Z,100031.44
2024-01-16T21:18:17.773Z,100023.03
2024-01-16T21:19:53.718Z,100033.41
2024-01-16T21:21:26.480Z,100031.81
2024-01-16T21:22:58.785Z,100040.38
2024-01-16T21:24:31.149Z,100042.03
2024-01-16T21:26:03.763Z,100038.38
2024-01-16T21:27:38.678Z,100035.56
2024-01-16T21:29:10.965Z,100047.31
2024-01-16T21:30:44.027Z,100042.06
2024-01-16T21:32:16.979Z,100048.66
2024-01-16T21:33:49.390Z,100041.91
2024-01-16T21:35:22.303Z,100046.03
2024-01-16T21:36:54.765Z,100041.50
2024-01-16T21:38:28.254Z,100049.19
2024-01-16T21:40:00.501Z,100043.44
2024-01-16T21:41:32.729Z,100045.13
2024-01-16T21:43:05.145Z,100041.66
2024-01-16T21:44:37.403Z,100048.50
2024-01-16T21:46:10.262Z,100045.19
2024-01-16T21:47:44.121Z,100048.66
2024-01-16T21:49:16.780Z,100036.81
2024-01-16T21:50:49.163Z,100048.06
2024-01-16T21:52:22.278Z,100049.97
2024-01-16T21:53:55.263Z,100052.56
2024-01-16T21:55:27.741Z,100050.72
2024-01-16T21:57:00.113Z,100037.66
2024-01-16T21:58:32.617Z,100036.75
2024-01-16T22:00:06.201Z,100036.72
2024-01-16T22:01:38.269Z,100040.19
2024-01-16T22:03:10.472Z,100033.81
2024-01-16T22:04:42.862Z,100035.56
2024-01-16T22:06:15.395Z,100032.28
2024-01-16T22:07:49.374Z,100031.41
2024-01-16T22:09:27.581Z,100028.91
2024-01-16T22:10:59.939Z,100034.88
2024-01-16T22:12:32.218Z,100039.75
2024-01-16T22:14:04.612Z,100041.25
2024-01-16T22:15:36.781Z,100045.25
2024-01-16T22:17:09.244Z,100047.84
2024-01-16T22:18:44.271Z,100043.56
2024-01-16T22:20:18.322Z,100042.53
2024-01-16T22:21:50.503Z,100048.31
2024-01-16T22:23:22.877Z,100048.97
2024-01-16T22:24:55.307Z,100047.13
2024-01-16T22:26:27.588Z,100043.78
2024-01-16T22:28:00.738Z,100045.69
2024-01-16T22:29:33.009Z,100043.47
2024-01-16T22:31:06.292Z,100041.84
2024-01-16T22:32:38.722Z,100046.91
2024-01-16T22:34:11.314Z,100049.38
2024-01-16T22:35:43.657Z,100049.31
2024-01-16T22:37:16.053Z,100049.22
2024-01-16T22:38:48.644Z,100047.59
2024-01-16T22:40:20.979Z,100052.72
2024-01-16T22:41:53.243Z,100041.63
2024-01-16T22:43:25.652Z,100042.34
2024-01-16T22:44:57.886Z,100037.72
2024-01-16T22:46:30.110Z,100046.06
2024-01-16T22:48:06.770Z,100051.72
2024-01-16T22:49:39.074Z,100049.88
2024-01-16T22:51:11.283Z,100060.59
2024-01-16T22:52:43.430Z,100050.16
2024-01-16T22:54:15.925Z,100045.72
2024-01-16T22:55:48.177Z,100046.47
2024-01-16T22:57:20.402Z,100047.38
2024-01-16T22:58:52.556Z,100037.31
2024-01-16T23:00:24.811Z,100028.78
2024-01-16T23:01:57.306Z,100034.50
2024-01-16T23:03:31.010Z,100025.97
2024-01-16T23:05:03.793Z,100033.50
2024-01-16T23:06:37.245Z,100030.16
2024-01-16T23:08:11.992Z,100037.94
2024-01-16T23:09:48.781Z,100022.03
2024-01-16T23:11:21.068Z,100018.03
2024-01-16T23:12:53.245Z,100008.03
2024-01-16T23:14:25.477Z,100011.47
2024-01-16T23:15:57.614Z,100002.34
2024-01-16T23:17:31.268Z,100004.19
2024-01-16T23:19:03.703Z,100005.19
2024-01-16T23:20:36.068Z,100002.03
2024-01-16T23:22:08.830Z,99994.38
2024-01-16T23:23:45.380Z,99991.00
2024-01-16T23:25:17.638Z,99993.31
2024-01-16T23:26:50.055Z,99983.16
2024-01-16T23:28:22.276Z,99986.75
2024-01-16T23:29:54.519Z,99981.63
2024-01-16T23:31:26.688Z,99985.09
2024-01-16T23:32:58.957Z,99983.16
2024-01-16T23:34:31.245Z,99976.91
2024-01-16T23:36:03.523Z,99977.53
2024-01-16T23:37:37.595Z,99977.53
2024-01-16T23:39:12.818Z,99975.09
2024-01-16T23:40:45.065Z,99972.69
2024-01-16T23:42:20.752Z,99972.78
2024-01-16T23:43:53.081Z,99975.28
2024-01-16T23:47:05.304Z,99973.78
2024-01-16T23:48:38.415Z,99972.00
2024-01-16T23:50:11.462Z,99965.34
2024-01-16T23:52:02.528Z,99960.56
2024-01-16T23:53:37.447Z,99951.84
2024-01-16T23:55:13.124Z,99948.97
2024-01-16T23:56:45.354Z,99947.19
2024-01-16T23:58:17.534Z,99942.13
2024-01-16T23:59:49.753Z,99948.91
